Time;durP1;ratioP1;P1;durP2;ratioP2;P2;SDS_P1;SDS_P2;PMS_P1;PMS_P2;Temp;Humidity;BMP_temperature;BMP_pressure;BME280_temperature;BME280_humidity;BME280_pressure;Samples;Min_cycle;Max_cycle;Signal;HPM_P1;HPM_P2
2021/03/12 00:00:22;;;;;;;;;;;15.60;56.70;;;;;;4879050;29;19956;-57
2021/03/12 00:02:47;;;;;;;;;;;15.70;56.70;;;;;;4879304;29;19948;-57
2021/03/12 00:05:13;;;;;;;;;;;15.60;56.70;;;;;;4879308;29;20374;-57
2021/03/12 00:07:39;;;;;;;;;;;15.50;56.60;;;;;;4879262;29;19915;-57
2021/03/12 00:10:07;;;;;;;;;;;15.60;56.70;;;;;;4878999;29;19907;-57
2021/03/12 00:12:33;;;;;;;;;;;15.70;56.70;;;;;;4878827;29;19912;-57
2021/03/12 00:14:58;;;;;;;;;;;15.60;56.70;;;;;;4878823;29;20382;-57
2021/03/12 00:17:24;;;;;;;;;;;15.60;56.70;;;;;;4878955;29;19951;-57
2021/03/12 00:19:49;;;;;;;;;;;15.60;56.80;;;;;;4879120;29;19907;-57
2021/03/12 00:22:15;;;;;;;;;;;15.40;56.70;;;;;;4879186;29;19919;-57
2021/03/12 00:24:40;;;;;;;;;;;15.60;56.80;;;;;;4878812;29;19971;-55
2021/03/12 00:27:06;;;;;;;;;;;15.60;56.80;;;;;;4879107;29;19957;-57
2021/03/12 00:29:31;;;;;;;;;;;15.50;56.80;;;;;;4879119;29;19908;-57
2021/03/12 00:31:58;;;;;;;;;;;15.50;56.80;;;;;;4878804;29;20012;-58
2021/03/12 00:34:23;;;;;;;;;;;15.50;56.90;;;;;;4878665;29;19915;-57
2021/03/12 00:36:49;;;;;;;;;;;15.60;56.90;;;;;;4878382;29;20355;-55
2021/03/12 00:39:14;;;;;;;;;;;15.50;56.90;;;;;;4878025;29;19934;-57
2021/03/12 00:41:40;;;;;;;;;;;15.60;56.90;;;;;;4878443;29;19918;-59
2021/03/12 00:44:06;;;;;;;;;;;15.40;56.90;;;;;;4878389;29;19918;-58
2021/03/12 00:46:31;;;;;;;;;;;15.50;56.90;;;;;;4878459;29;19908;-58
2021/03/12 00:48:56;;;;;;;;;;;15.30;56.90;;;;;;4878442;29;19947;-58
2021/03/12 00:51:22;;;;;;;;;;;15.30;56.90;;;;;;4878393;29;19951;-58
2021/03/12 00:53:48;;;;;;;;;;;15.30;57.00;;;;;;4862218;29;20378;-58
2021/03/12 00:56:13;;;;;;;;;;;15.50;57.10;;;;;;4877741;29;20282;-59
2021/03/12 00:58:39;;;;;;;;;;;15.40;57.00;;;;;;4878619;29;19951;-58
2021/03/12 01:01:04;;;;;;;;;;;15.40;57.00;;;;;;4882642;29;19908;-58
2021/03/12 01:03:30;;;;;;;;;;;15.50;57.00;;;;;;4882327;29;19915;-57
2021/03/12 01:05:55;;;;;;;;;;;15.50;57.00;;;;;;4880582;29;20367;-59
2021/03/12 01:08:21;;;;;;;;;;;15.50;57.10;;;;;;4881271;29;19912;-58
2021/03/12 01:10:46;;;;;;;;;;;15.30;57.00;;;;;;4881214;29;20270;-59
2021/03/12 01:13:12;;;;;;;;;;;15.40;57.10;;;;;;4881270;29;20051;-58
2021/03/12 01:15:37;;;;;;;;;;;15.40;57.10;;;;;;4881315;29;19956;-59
2021/03/12 01:18:04;;;;;;;;;;;15.40;57.10;;;;;;4881070;29;20279;-59
2021/03/12 01:20:35;;;;;;;;;;;15.40;57.70;;;;;;4881965;29;19951;-59
2021/03/12 01:23:01;;;;;;;;;;;15.30;57.10;;;;;;4882322;29;20440;-59
2021/03/12 01:25:28;;;;;;;;;;;15.20;57.10;;;;;;4882275;29;19951;-58
2021/03/12 01:27:53;;;;;;;;;;;15.30;57.10;;;;;;4865325;29;19915;-58
2021/03/12 01:30:22;;;;;;;;;;;15.30;57.10;;;;;;4882277;29;19908;-57
2021/03/12 01:32:47;;;;;;;;;;;15.30;57.10;;;;;;4881931;29;19955;-58
2021/03/12 01:35:13;;;;;;;;;;;15.30;57.10;;;;;;4882179;29;19911;-57
2021/03/12 01:37:39;;;;;;;;;;;15.30;57.20;;;;;;4882066;29;20371;-58
2021/03/12 01:40:07;;;;;;;;;;;15.30;57.10;;;;;;4880821;29;19908;-58
2021/03/12 01:42:32;;;;;;;;;;;15.30;57.10;;;;;;4881939;29;19907;-59
2021/03/12 01:44:58;;;;;;;;;;;15.20;57.10;;;;;;4881850;29;20228;-58
2021/03/12 01:47:23;;;;;;;;;;;15.20;57.10;;;;;;4881919;29;19908;-59
2021/03/12 01:49:49;;;;;;;;;;;15.30;57.20;;;;;;4881774;29;19908;-58
2021/03/12 01:52:14;;;;;;;;;;;15.30;57.20;;;;;;4881860;29;19907;-58
2021/03/12 01:54:40;;;;;;;;;;;15.10;57.10;;;;;;4865423;29;20032;-59
2021/03/12 01:57:06;;;;;;;;;;;15.30;57.20;;;;;;4881137;29;19918;-59
2021/03/12 01:59:31;;;;;;;;;;;15.30;57.20;;;;;;4881153;29;20398;-59
2021/03/12 02:01:57;;;;;;;;;;;15.10;57.10;;;;;;4881407;29;19907;-58
2021/03/12 02:04:23;;;;;;;;;;;15.20;57.20;;;;;;4881389;29;19912;-58
2021/03/12 02:06:49;;;;;;;;;;;15.20;57.20;;;;;;4881332;29;19998;-59
2021/03/12 02:09:15;;;;;;;;;;;15.20;57.30;;;;;;4881261;29;20336;-59
2021/03/12 02:11:44;;;;;;;;;;;15.10;57.10;;;;;;4881017;29;20294;-58
2021/03/12 02:14:32;;;;;;;;;;;15.20;57.20;;;;;;4881463;29;20278;-59
2021/03/12 02:16:58;;;;;;;;;;;15.20;57.20;;;;;;4881266;29;20063;-59
2021/03/12 02:19:53;;;;;;;;;;;15.10;57.20;;;;;;4880893;29;20348;-58
2021/03/12 02:22:21;;;;;;;;;;;15.20;57.20;;;;;;4864362;29;19912;-58
2021/03/12 02:24:46;;;;;;;;;;;15.20;57.30;;;;;;4880995;29;19919;-57
2021/03/12 02:27:16;;;;;;;;;;;15.20;57.30;;;;;;4880960;29;19911;-57
2021/03/12 02:29:46;;;;;;;;;;;15.20;57.20;;;;;;4881082;29;19916;-58
2021/03/12 02:32:14;;;;;;;;;;;15.10;57.20;;;;;;4880735;29;19912;-58
2021/03/12 02:34:42;;;;;;;;;;;15.10;57.30;;;;;;4880170;29;19931;-58
2021/03/12 02:37:08;;;;;;;;;;;15.10;57.30;;;;;;4880668;29;19998;-58
2021/03/12 02:39:36;;;;;;;;;;;14.90;57.20;;;;;;4863581;29;20328;-59
2021/03/12 02:42:02;;;;;;;;;;;15.10;57.50;;;;;;4880210;29;19936;-58
2021/03/12 02:44:29;;;;;;;;;;;15.10;57.30;;;;;;4880896;29;19928;-57
2021/03/12 02:47:07;;;;;;;;;;;15.10;57.40;;;;;;4880830;29;19915;-59
2021/03/12 02:49:33;;;;;;;;;;;15.10;57.40;;;;;;4886610;29;19912;-58
2021/03/12 02:51:59;;;;;;;;;;;15.10;57.40;;;;;;4880665;29;19914;-58
2021/03/12 02:54:25;;;;;;;;;;;15.10;57.40;;;;;;4881175;29;19920;-60
2021/03/12 02:56:50;;;;;;;;;;;14.90;57.40;;;;;;4880574;29;19907;-58
2021/03/12 02:59:17;;;;;;;;;;;14.90;57.40;;;;;;4880434;29;19920;-58
2021/03/12 03:01:45;;;;;;;;;;;14.80;57.30;;;;;;4880364;29;19919;-58
2021/03/12 03:04:10;;;;;;;;;;;14.80;57.40;;;;;;4863567;29;19918;-59
2021/03/12 03:06:36;;;;;;;;;;;15.10;57.60;;;;;;4880268;29;20382;-57
2021/03/12 03:09:03;;;;;;;;;;;15.00;57.50;;;;;;4880195;29;19933;-58
2021/03/12 03:11:29;;;;;;;;;;;15.00;57.50;;;;;;4879896;29;19964;-59
2021/03/12 03:13:54;;;;;;;;;;;15.00;57.60;;;;;;4880343;29;20491;-59
2021/03/12 03:16:23;;;;;;;;;;;15.00;57.60;;;;;;4880361;29;19908;-59
2021/03/12 03:18:49;;;;;;;;;;;14.90;57.60;;;;;;4879937;29;19938;-60
2021/03/12 03:21:15;;;;;;;;;;;15.00;57.70;;;;;;4879488;29;20363;-58
2021/03/12 03:23:42;;;;;;;;;;;15.00;57.70;;;;;;4879713;29;20002;-58
2021/03/12 03:26:08;;;;;;;;;;;14.90;57.60;;;;;;4880051;29;19908;-59
2021/03/12 03:28:34;;;;;;;;;;;15.00;57.70;;;;;;4880214;29;19908;-59
2021/03/12 03:31:03;;;;;;;;;;;14.90;57.60;;;;;;4880144;29;20008;-58
2021/03/12 03:33:29;;;;;;;;;;;15.00;57.60;;;;;;4880106;29;20275;-58
2021/03/12 03:35:55;;;;;;;;;;;14.90;57.70;;;;;;4880031;29;19908;-58
2021/03/12 03:38:20;;;;;;;;;;;14.70;57.60;;;;;;4879534;29;19992;-59
2021/03/12 03:40:46;;;;;;;;;;;14.90;57.70;;;;;;4878116;29;19911;-59
2021/03/12 03:43:12;;;;;;;;;;;14.90;57.60;;;;;;4879219;29;20002;-58
2021/03/12 03:45:38;;;;;;;;;;;14.80;57.60;;;;;;4879884;29;20007;-58
2021/03/12 03:48:06;;;;;;;;;;;14.90;57.70;;;;;;4879581;29;20011;-59
2021/03/12 03:50:31;;;;;;;;;;;14.90;57.70;;;;;;4879480;29;19916;-59
2021/03/12 03:52:57;;;;;;;;;;;14.90;57.80;;;;;;4879404;29;19962;-58
2021/03/12 03:55:24;;;;;;;;;;;14.60;57.50;;;;;;4879442;29;19924;-58
2021/03/12 03:57:51;;;;;;;;;;;14.80;57.70;;;;;;4878413;29;19912;-59
2021/03/12 04:00:17;;;;;;;;;;;14.70;57.60;;;;;;4878629;29;19963;-58
2021/03/12 04:02:46;;;;;;;;;;;14.80;57.70;;;;;;4878630;29;19912;-59
2021/03/12 04:05:13;;;;;;;;;;;14.80;57.60;;;;;;4878328;29;20375;-59
2021/03/12 04:07:39;;;;;;;;;;;14.80;57.70;;;;;;4878436;29;19959;-58
2021/03/12 04:10:05;;;;;;;;;;;14.80;57.80;;;;;;4878416;29;19998;-59
2021/03/12 04:12:31;;;;;;;;;;;14.80;57.70;;;;;;4878484;29;19907;-58
2021/03/12 04:14:57;;;;;;;;;;;14.70;57.70;;;;;;4878681;29;19918;-59
2021/03/12 04:17:22;;;;;;;;;;;14.80;57.70;;;;;;4878239;29;20010;-58
2021/03/12 04:19:48;;;;;;;;;;;14.80;57.80;;;;;;4878713;29;19928;-59
2021/03/12 04:22:14;;;;;;;;;;;14.80;57.80;;;;;;4861774;29;19908;-59
2021/03/12 04:24:40;;;;;;;;;;;14.60;57.70;;;;;;4878248;29;19954;-59
2021/03/12 04:27:06;;;;;;;;;;;14.80;57.80;;;;;;4861295;29;19907;-59
2021/03/12 04:29:32;;;;;;;;;;;14.80;57.90;;;;;;4878195;29;19935;-58
2021/03/12 04:31:57;;;;;;;;;;;14.70;57.80;;;;;;4877974;29;19918;-58
2021/03/12 04:34:23;;;;;;;;;;;14.80;57.90;;;;;;4861187;29;19999;-56
2021/03/12 04:36:50;;;;;;;;;;;14.70;57.80;;;;;;4878036;29;19908;-59
2021/03/12 04:39:15;;;;;;;;;;;14.60;57.80;;;;;;4877939;29;19955;-58
2021/03/12 04:41:41;;;;;;;;;;;14.70;57.90;;;;;;4877941;29;20011;-59
2021/03/12 04:44:09;;;;;;;;;;;14.60;57.90;;;;;;4878096;29;19907;-58
2021/03/12 04:46:35;;;;;;;;;;;14.50;57.80;;;;;;4878032;29;19908;-59
2021/03/12 04:49:01;;;;;;;;;;;14.70;57.90;;;;;;4877763;29;19915;-58
2021/03/12 04:51:26;;;;;;;;;;;14.70;58.00;;;;;;4861025;29;19912;-58
2021/03/12 04:54:05;;;;;;;;;;;14.70;58.00;;;;;;4605717;29;7650543;-59
2021/03/12 04:56:30;;;;;;;;;;;14.70;57.90;;;;;;4878502;29;20359;-58
2021/03/12 04:58:56;;;;;;;;;;;14.60;57.90;;;;;;4878832;29;19919;-59
2021/03/12 05:01:22;;;;;;;;;;;14.70;58.00;;;;;;4878666;29;19908;-58
2021/03/12 05:03:47;;;;;;;;;;;14.70;58.00;;;;;;4878719;29;19907;-58
2021/03/12 05:06:13;;;;;;;;;;;14.60;58.00;;;;;;4878596;29;19908;-58
2021/03/12 05:08:39;;;;;;;;;;;14.60;58.00;;;;;;4878676;29;19912;-57
2021/03/12 05:11:06;;;;;;;;;;;14.70;58.00;;;;;;4878724;29;19915;-58
2021/03/12 05:13:32;;;;;;;;;;;14.60;58.60;;;;;;4878526;29;20298;-57
2021/03/12 05:15:57;;;;;;;;;;;14.60;58.00;;;;;;4878447;29;19918;-58
2021/03/12 05:18:23;;;;;;;;;;;14.40;57.90;;;;;;4878445;29;20442;-58
2021/03/12 05:20:49;;;;;;;;;;;14.60;58.00;;;;;;4878485;29;19908;-59
2021/03/12 05:23:18;;;;;;;;;;;14.60;58.00;;;;;;4878561;29;19998;-59
2021/03/12 05:25:44;;;;;;;;;;;14.60;58.00;;;;;;4878653;29;19956;-58
2021/03/12 05:28:10;;;;;;;;;;;14.60;58.00;;;;;;4878534;29;19907;-58
2021/03/12 05:30:35;;;;;;;;;;;14.50;58.00;;;;;;4878564;29;19956;-58
2021/03/12 05:33:01;;;;;;;;;;;14.60;58.00;;;;;;4878561;29;19950;-58
2021/03/12 05:35:26;;;;;;;;;;;14.60;58.00;;;;;;4878319;29;19935;-57
2021/03/12 05:37:52;;;;;;;;;;;14.60;58.00;;;;;;4878425;29;19923;-58
2021/03/12 05:40:19;;;;;;;;;;;14.50;58.00;;;;;;4878248;29;19908;-59
2021/03/12 05:42:44;;;;;;;;;;;14.60;58.10;;;;;;4878316;29;20002;-57
2021/03/12 05:45:10;;;;;;;;;;;14.40;58.00;;;;;;4879312;29;20003;-58
2021/03/12 05:47:36;;;;;;;;;;;14.60;58.20;;;;;;4881881;29;20014;-58
2021/03/12 05:50:03;;;;;;;;;;;14.60;58.20;;;;;;4881772;29;19911;-58
2021/03/12 05:52:28;;;;;;;;;;;14.60;58.30;;;;;;4881919;29;19914;-58
2021/03/12 05:54:54;;;;;;;;;;;14.60;58.40;;;;;;4882492;29;20006;-58
2021/03/12 05:57:21;;;;;;;;;;;14.60;58.40;;;;;;4881518;29;19916;-57
2021/03/12 05:59:47;;;;;;;;;;;14.60;58.40;;;;;;4881532;29;19911;-58
2021/03/12 06:02:13;;;;;;;;;;;14.40;58.40;;;;;;4864660;29;20384;-58
2021/03/12 06:04:38;;;;;;;;;;;14.60;58.50;;;;;;4881723;29;20418;-59
2021/03/12 06:07:04;;;;;;;;;;;14.60;58.60;;;;;;4881389;29;20473;-58
2021/03/12 06:09:29;;;;;;;;;;;14.60;58.60;;;;;;4881442;29;19915;-58
2021/03/12 06:11:55;;;;;;;;;;;14.60;58.60;;;;;;4881240;29;19977;-59
2021/03/12 06:14:44;;;;;;;;;;;14.60;58.60;;;;;;4881292;29;19908;-57
2021/03/12 06:17:09;;;;;;;;;;;14.70;58.90;;;;;;4870801;29;19908;-58
2021/03/12 06:19:35;;;;;;;;;;;14.60;58.80;;;;;;4880976;29;19915;-58
2021/03/12 06:22:06;;;;;;;;;;;14.70;58.70;;;;;;4880886;29;19908;-58
2021/03/12 06:24:33;;;;;;;;;;;14.70;58.80;;;;;;4881202;29;19912;-57
2021/03/12 06:26:59;;;;;;;;;;;14.60;58.80;;;;;;4881129;29;19943;-57
2021/03/12 06:29:32;;;;;;;;;;;14.60;58.70;;;;;;4881144;29;19951;-59
2021/03/12 06:31:57;;;;;;;;;;;14.70;58.60;;;;;;4879644;29;20364;-56
2021/03/12 06:34:22;;;;;;;;;;;14.60;58.60;;;;;;4880904;29;19968;-58
2021/03/12 06:36:48;;;;;;;;;;;14.70;58.60;;;;;;4880573;29;19955;-58
2021/03/12 06:39:13;;;;;;;;;;;14.60;58.70;;;;;;4880418;29;19916;-57
2021/03/12 06:41:40;;;;;;;;;;;14.60;58.60;;;;;;4880552;29;19915;-57
2021/03/12 06:44:25;;;;;;;;;;;14.70;58.50;;;;;;4863877;29;20335;-58
2021/03/12 06:46:50;;;;;;;;;;;14.70;58.40;;;;;;4880760;29;19915;-57
2021/03/12 06:49:16;;;;;;;;;;;14.80;58.50;;;;;;4880549;29;19911;-58
2021/03/12 06:52:01;;;;;;;;;;;14.90;58.30;;;;;;4880357;29;20288;-56
2021/03/12 06:54:27;;;;;;;;;;;15.00;58.20;;;;;;4881250;29;19924;-56
2021/03/12 06:56:53;;;;;;;;;;;14.80;58.20;;;;;;4879287;29;20002;-57
2021/03/12 06:59:29;;;;;;;;;;;14.90;58.30;;;;;;4880240;29;20319;-57
2021/03/12 07:01:59;;;;;;;;;;;14.90;58.30;;;;;;4880151;29;19907;-58
2021/03/12 07:04:25;;;;;;;;;;;14.90;58.20;;;;;;4880161;29;19907;-59
2021/03/12 07:06:50;;;;;;;;;;;14.90;58.10;;;;;;4880239;29;19915;-57
2021/03/12 07:09:16;;;;;;;;;;;14.90;58.10;;;;;;4880367;29;20371;-56
2021/03/12 07:11:42;;;;;;;;;;;14.80;58.10;;;;;;4880400;29;19959;-58
2021/03/12 07:14:08;;;;;;;;;;;15.30;58.30;;;;;;4879731;29;19956;-57
2021/03/12 07:16:40;;;;;;;;;;;14.70;58.10;;;;;;4879865;29;19912;-57
2021/03/12 07:19:06;;;;;;;;;;;14.70;58.00;;;;;;4880143;29;19975;-57
2021/03/12 07:21:32;;;;;;;;;;;15.40;58.60;;;;;;4879882;29;19912;-56
2021/03/12 07:23:59;;;;;;;;;;;14.70;58.40;;;;;;4879790;29;19918;-56
2021/03/12 07:26:28;;;;;;;;;;;14.70;58.30;;;;;;4880140;29;19908;-57
2021/03/12 07:28:58;;;;;;;;;;;14.70;58.40;;;;;;4879687;29;19907;-57
2021/03/12 07:31:25;;;;;;;;;;;14.60;58.30;;;;;;4879728;29;19908;-56
2021/03/12 07:33:52;;;;;;;;;;;14.60;58.20;;;;;;4879107;29;19908;-57
2021/03/12 07:36:21;;;;;;;;;;;14.60;58.20;;;;;;4879311;29;19912;-56
2021/03/12 07:38:47;;;;;;;;;;;14.60;58.10;;;;;;4878972;29;19967;-55
2021/03/12 07:41:13;;;;;;;;;;;14.60;58.10;;;;;;4879363;29;20387;-56
2021/03/12 07:43:39;;;;;;;;;;;14.70;58.10;;;;;;4879720;29;19914;-57
2021/03/12 07:46:06;;;;;;;;;;;14.70;58.20;;;;;;4879740;29;19927;-56
2021/03/12 07:48:32;;;;;;;;;;;14.70;58.20;;;;;;4879817;29;19912;-57
2021/03/12 07:51:04;;;;;;;;;;;14.60;58.20;;;;;;4879455;29;20288;-57
2021/03/12 07:53:45;;;;;;;;;;;14.60;58.10;;;;;;4879362;29;19908;-57
2021/03/12 07:56:12;;;;;;;;;;;14.70;58.30;;;;;;4879333;29;20011;-55
2021/03/12 07:58:49;;;;;;;;;;;14.50;58.20;;;;;;4879181;29;19915;-57
2021/03/12 08:01:14;;;;;;;;;;;14.60;58.10;;;;;;4879477;29;20018;-56
2021/03/12 08:03:40;;;;;;;;;;;14.70;59.10;;;;;;4879148;29;20386;-56
2021/03/12 08:06:25;;;;;;;;;;;14.70;58.50;;;;;;4879263;29;20002;-55
2021/03/12 08:08:51;;;;;;;;;;;14.50;59.10;;;;;;4878737;29;20348;-56
2021/03/12 08:11:22;;;;;;;;;;;14.80;59.60;;;;;;4879050;29;19958;-55
2021/03/12 08:13:49;;;;;;;;;;;14.80;59.60;;;;;;4879302;29;19914;-56
2021/03/12 08:16:15;;;;;;;;;;;14.80;59.60;;;;;;4879121;29;19907;-55
2021/03/12 08:18:41;;;;;;;;;;;14.80;59.60;;;;;;4878839;29;20288;-51
2021/03/12 08:21:27;;;;;;;;;;;14.80;59.30;;;;;;4879158;29;20014;-54
2021/03/12 08:23:52;;;;;;;;;;;14.90;58.60;;;;;;4879013;29;19911;-57
2021/03/12 08:26:36;;;;;;;;;;;15.00;58.50;;;;;;4879099;29;19958;-55
2021/03/12 08:29:40;;;;;;;;;;;15.00;58.50;;;;;;4878724;29;19911;-54
2021/03/12 08:32:31;;;;;;;;;;;15.00;58.40;;;;;;4803049;29;19909;-55
2021/03/12 08:34:57;;;;;;;;;;;15.00;58.40;;;;;;4802913;29;19917;-54
2021/03/12 08:37:25;;;;;;;;;;;15.00;59.20;;;;;;4850670;29;19912;-56
2021/03/12 08:40:09;;;;;;;;;;;15.00;58.50;;;;;;4878807;29;19915;-56
2021/03/12 08:42:54;;;;;;;;;;;14.90;58.40;;;;;;4879022;29;19923;-55
2021/03/12 08:45:31;;;;;;;;;;;15.00;58.50;;;;;;4878830;29;19915;-56
2021/03/12 08:48:00;;;;;;;;;;;15.00;58.60;;;;;;4878709;29;19914;-53
2021/03/12 08:50:26;;;;;;;;;;;15.00;58.80;;;;;;4878751;29;19908;-56
2021/03/12 08:52:58;;;;;;;;;;;15.00;58.60;;;;;;4878917;29;19912;-55
2021/03/12 08:55:30;;;;;;;;;;;15.00;58.40;;;;;;4878897;29;19920;-55
2021/03/12 08:58:09;;;;;;;;;;;15.00;58.40;;;;;;4878548;29;20006;-55
2021/03/12 09:00:35;;;;;;;;;;;15.00;58.40;;;;;;4878585;29;20478;-53
2021/03/12 09:03:34;;;;;;;;;;;15.00;58.40;;;;;;4878585;29;19914;-54
2021/03/12 09:06:01;;;;;;;;;;;15.00;58.40;;;;;;4864794;29;19908;-53
2021/03/12 09:08:27;;;;;;;;;;;15.00;58.40;;;;;;4878455;29;20099;-55
2021/03/12 09:10:53;;;;;;;;;;;15.00;58.20;;;;;;4878675;29;19915;-54
2021/03/12 09:13:23;;;;;;;;;;;15.00;58.30;;;;;;4878610;29;19908;-55
2021/03/12 09:15:49;;;;;;;;;;;15.00;58.20;;;;;;4878434;29;20043;-56
2021/03/12 09:18:16;;;;;;;;;;;15.00;58.30;;;;;;4878332;29;19915;-56
2021/03/12 09:20:42;;;;;;;;;;;15.00;58.20;;;;;;4880199;29;19953;-56
2021/03/12 09:23:08;;;;;;;;;;;15.00;58.30;;;;;;4882131;29;19927;-56
2021/03/12 09:25:33;;;;;;;;;;;15.00;58.10;;;;;;4882095;29;19907;-55
2021/03/12 09:28:00;;;;;;;;;;;15.00;58.20;;;;;;4882069;29;19908;-53
2021/03/12 09:30:46;;;;;;;;;;;15.00;58.30;;;;;;4882109;29;19908;-55
2021/03/12 09:33:30;;;;;;;;;;;14.90;58.30;;;;;;4881480;29;19942;-55
2021/03/12 09:35:56;;;;;;;;;;;15.00;58.10;;;;;;4881754;29;20002;-54
2021/03/12 09:38:29;;;;;;;;;;;14.90;58.20;;;;;;4881599;29;20032;-54
2021/03/12 09:40:54;;;;;;;;;;;14.90;58.30;;;;;;4881944;29;19943;-54
2021/03/12 09:43:20;;;;;;;;;;;14.90;58.40;;;;;;4881527;29;19908;-51
2021/03/12 09:45:47;;;;;;;;;;;14.90;58.10;;;;;;4865182;29;19908;-50
2021/03/12 09:48:12;;;;;;;;;;;15.00;57.90;;;;;;4881943;29;19919;-55
2021/03/12 09:50:38;;;;;;;;;;;15.00;57.80;;;;;;4881647;29;19908;-55
2021/03/12 09:53:05;;;;;;;;;;;15.00;57.60;;;;;;4881807;29;19995;-55
2021/03/12 09:55:32;;;;;;;;;;;15.00;57.60;;;;;;4882287;29;19920;-53
2021/03/12 09:57:58;;;;;;;;;;;15.00;57.60;;;;;;4881553;29;20287;-56
2021/03/12 10:00:25;;;;;;;;;;;14.80;57.60;;;;;;4881748;29;19914;-55
2021/03/12 10:02:51;;;;;;;;;;;14.90;57.60;;;;;;4881439;29;20443;-52
2021/03/12 10:05:18;;;;;;;;;;;14.70;57.50;;;;;;4881492;29;19937;-53
2021/03/12 10:07:46;;;;;;;;;;;14.90;57.70;;;;;;4881491;29;20348;-55
2021/03/12 10:10:12;;;;;;;;;;;14.90;57.70;;;;;;4864652;29;20364;-55
2021/03/12 10:12:39;;;;;;;;;;;14.90;57.70;;;;;;4881307;29;19911;-55
2021/03/12 10:15:08;;;;;;;;;;;14.90;57.80;;;;;;4881287;29;20359;-54
2021/03/12 10:17:35;;;;;;;;;;;14.90;57.90;;;;;;4881348;29;19971;-56
2021/03/12 10:20:03;;;;;;;;;;;14.90;58.00;;;;;;4881307;29;19908;-55
2021/03/12 10:22:33;;;;;;;;;;;14.70;57.90;;;;;;4881121;29;19907;-57
2021/03/12 10:25:00;;;;;;;;;;;14.90;57.90;;;;;;4864264;29;19915;-56
2021/03/12 10:27:28;;;;;;;;;;;14.90;57.90;;;;;;4880685;29;19908;-56
2021/03/12 10:29:54;;;;;;;;;;;14.70;57.70;;;;;;4881013;29;19908;-52
2021/03/12 10:32:20;;;;;;;;;;;14.80;57.80;;;;;;4880813;29;20419;-56
2021/03/12 10:34:47;;;;;;;;;;;14.70;57.70;;;;;;4864058;29;19907;-56
2021/03/12 10:37:23;;;;;;;;;;;14.90;57.90;;;;;;4880977;29;20275;-56
2021/03/12 10:39:50;;;;;;;;;;;14.90;57.90;;;;;;4880850;29;20431;-56
2021/03/12 10:42:16;;;;;;;;;;;14.80;58.00;;;;;;4880767;29;19908;-56
2021/03/12 10:44:58;;;;;;;;;;;14.70;57.90;;;;;;4880918;29;19915;-56
2021/03/12 10:47:24;;;;;;;;;;;14.80;57.90;;;;;;4880316;29;20435;-56
2021/03/12 10:49:50;;;;;;;;;;;14.80;58.00;;;;;;4880686;29;19908;-57
2021/03/12 10:52:29;;;;;;;;;;;14.90;58.10;;;;;;4880674;29;20271;-57
2021/03/12 10:54:55;;;;;;;;;;;14.80;57.90;;;;;;4881090;29;19960;-54
2021/03/12 10:57:34;;;;;;;;;;;14.80;57.90;;;;;;4880261;29;19915;-55
2021/03/12 11:00:00;;;;;;;;;;;14.90;57.90;;;;;;4880192;29;20423;-56
2021/03/12 11:02:35;;;;;;;;;;;14.80;57.90;;;;;;4880141;29;20010;-55
2021/03/12 11:05:01;;;;;;;;;;;14.80;57.90;;;;;;4880399;29;19911;-56
2021/03/12 11:07:27;;;;;;;;;;;15.30;58.20;;;;;;4880145;29;20492;-55
2021/03/12 11:09:52;;;;;;;;;;;14.80;58.00;;;;;;4880355;29;20002;-57
2021/03/12 11:12:18;;;;;;;;;;;14.60;57.80;;;;;;4880057;29;19931;-57
2021/03/12 11:14:44;;;;;;;;;;;14.80;57.90;;;;;;4880304;29;19951;-55
2021/03/12 11:17:09;;;;;;;;;;;14.60;57.80;;;;;;4880230;29;19962;-57
2021/03/12 11:19:35;;;;;;;;;;;14.60;58.00;;;;;;4879817;29;19923;-57
2021/03/12 11:22:00;;;;;;;;;;;14.80;58.10;;;;;;4863132;29;19908;-56
2021/03/12 11:24:26;;;;;;;;;;;14.80;58.00;;;;;;4880011;29;19912;-56
2021/03/12 11:26:51;;;;;;;;;;;14.60;57.90;;;;;;4879938;29;20022;-54
2021/03/12 11:29:17;;;;;;;;;;;14.80;58.00;;;;;;4880158;29;19912;-57
2021/03/12 11:31:42;;;;;;;;;;;14.70;57.90;;;;;;4879751;29;19911;-53
2021/03/12 11:34:08;;;;;;;;;;;15.20;58.10;;;;;;4879866;29;19908;-56
2021/03/12 11:36:34;;;;;;;;;;;14.80;57.90;;;;;;4879963;29;19914;-57
2021/03/12 11:38:59;;;;;;;;;;;14.80;58.00;;;;;;4879398;29;19916;-56
2021/03/12 11:41:24;;;;;;;;;;;14.80;57.90;;;;;;4879650;29;20050;-57
2021/03/12 11:43:50;;;;;;;;;;;14.70;57.80;;;;;;4879042;29;20003;-57
2021/03/12 11:46:16;;;;;;;;;;;14.70;57.70;;;;;;4879579;29;19964;-57
2021/03/12 11:48:41;;;;;;;;;;;14.70;57.80;;;;;;4879394;29;19934;-55
2021/03/12 11:51:07;;;;;;;;;;;14.70;57.90;;;;;;4879798;29;20339;-56
2021/03/12 11:53:33;;;;;;;;;;;14.70;58.50;;;;;;4879883;29;19916;-57
2021/03/12 11:55:59;;;;;;;;;;;14.80;57.90;;;;;;4880389;29;19920;-57
2021/03/12 11:58:24;;;;;;;;;;;14.70;57.90;;;;;;4879438;29;19979;-57
2021/03/12 12:00:50;;;;;;;;;;;14.80;57.80;;;;;;4879256;29;19908;-55
2021/03/12 12:03:16;;;;;;;;;;;14.80;57.90;;;;;;4879283;29;20267;-57
2021/03/12 12:05:42;;;;;;;;;;;14.80;57.70;;;;;;4879470;29;19912;-56
2021/03/12 12:08:07;;;;;;;;;;;15.00;57.70;;;;;;4879251;29;19919;-56
2021/03/12 12:10:33;;;;;;;;;;;14.80;57.70;;;;;;4879222;29;20062;-57
2021/03/12 12:12:58;;;;;;;;;;;14.80;57.60;;;;;;4879056;29;19914;-56
2021/03/12 12:15:26;;;;;;;;;;;14.90;57.70;;;;;;4879330;29;20359;-58
2021/03/12 12:17:52;;;;;;;;;;;14.80;57.60;;;;;;4879143;29;20320;-58
2021/03/12 12:20:18;;;;;;;;;;;14.80;57.60;;;;;;4878977;29;19912;-58
2021/03/12 12:22:44;;;;;;;;;;;14.80;57.60;;;;;;4878503;29;19986;-57
2021/03/12 12:25:10;;;;;;;;;;;14.70;57.30;;;;;;4878949;29;19908;-59
2021/03/12 12:27:35;;;;;;;;;;;14.90;57.30;;;;;;4879041;29;19907;-57
2021/03/12 12:30:01;;;;;;;;;;;14.90;57.60;;;;;;4878837;29;19914;-58
2021/03/12 12:32:27;;;;;;;;;;;15.00;57.40;;;;;;4878992;29;19907;-57
2021/03/12 12:34:52;;;;;;;;;;;15.00;57.00;;;;;;4878623;29;19982;-57
2021/03/12 12:37:18;;;;;;;;;;;15.00;56.80;;;;;;4878883;29;19908;-57
2021/03/12 12:39:43;;;;;;;;;;;15.10;56.70;;;;;;4878375;29;19915;-57
2021/03/12 12:42:09;;;;;;;;;;;15.10;56.60;;;;;;4878672;29;19907;-57
2021/03/12 12:44:34;;;;;;;;;;;15.20;56.60;;;;;;4878617;29;19918;-57
2021/03/12 12:46:59;;;;;;;;;;;15.20;56.50;;;;;;4877696;29;19908;-57
2021/03/12 12:49:25;;;;;;;;;;;15.00;56.30;;;;;;4877048;29;19908;-58
2021/03/12 12:51:50;;;;;;;;;;;15.20;56.40;;;;;;4878270;29;20381;-58
2021/03/12 12:54:16;;;;;;;;;;;15.20;56.40;;;;;;4878761;29;20145;-59
2021/03/12 12:56:41;;;;;;;;;;;15.10;55.90;;;;;;4878557;29;19908;-57
2021/03/12 12:59:07;;;;;;;;;;;15.10;56.10;;;;;;4878632;29;20335;-57
2021/03/12 13:01:32;;;;;;;;;;;15.30;56.10;;;;;;4878696;29;20264;-58
2021/03/12 13:03:58;;;;;;;;;;;15.30;55.80;;;;;;4878369;29;19954;-58
2021/03/12 13:06:23;;;;;;;;;;;15.20;55.90;;;;;;4878336;29;19915;-58
2021/03/12 13:08:49;;;;;;;;;;;15.20;55.70;;;;;;4878593;29;19956;-55
2021/03/12 13:11:14;;;;;;;;;;;15.60;56.40;;;;;;4878674;29;19908;-58
2021/03/12 13:13:40;;;;;;;;;;;15.20;55.90;;;;;;4876899;29;19908;-58
2021/03/12 13:16:06;;;;;;;;;;;15.40;55.90;;;;;;4878444;29;20007;-56
2021/03/12 13:18:33;;;;;;;;;;;15.20;55.60;;;;;;4878109;29;20014;-57
2021/03/12 13:21:00;;;;;;;;;;;15.50;55.60;;;;;;4861595;29;19908;-55
2021/03/12 13:23:27;;;;;;;;;;;15.40;55.60;;;;;;4878745;29;19907;-57
2021/03/12 13:25:52;;;;;;;;;;;15.40;55.70;;;;;;4877902;29;19940;-57
2021/03/12 13:28:18;;;;;;;;;;;15.30;55.30;;;;;;4878309;29;20018;-58
2021/03/12 13:30:44;;;;;;;;;;;15.40;55.70;;;;;;4878448;29;20279;-57
2021/03/12 13:33:10;;;;;;;;;;;15.50;55.80;;;;;;4878061;29;19907;-57
2021/03/12 13:35:35;;;;;;;;;;;16.00;56.00;;;;;;4878441;29;19915;-58
2021/03/12 13:38:01;;;;;;;;;;;15.60;55.00;;;;;;4861273;29;20430;-57
2021/03/12 13:40:27;;;;;;;;;;;15.50;55.60;;;;;;4877898;29;20264;-57
2021/03/12 13:42:56;;;;;;;;;;;15.50;55.50;;;;;;4878385;29;19911;-57
2021/03/12 13:45:21;;;;;;;;;;;15.40;55.20;;;;;;4878269;29;19956;-57
2021/03/12 13:47:47;;;;;;;;;;;15.60;56.00;;;;;;4877693;29;19915;-56
2021/03/12 13:50:13;;;;;;;;;;;15.40;55.20;;;;;;4878012;29;19919;-58
2021/03/12 13:52:39;;;;;;;;;;;15.60;55.30;;;;;;4861265;29;20003;-57
2021/03/12 13:55:10;;;;;;;;;;;15.60;55.30;;;;;;4878588;29;20287;-58
2021/03/12 13:57:36;;;;;;;;;;;15.60;55.50;;;;;;4877726;29;19955;-57
2021/03/12 14:00:03;;;;;;;;;;;15.60;55.30;;;;;;4877842;29;19954;-57
2021/03/12 14:02:29;;;;;;;;;;;15.60;55.20;;;;;;4877772;29;19908;-58
2021/03/12 14:04:54;;;;;;;;;;;15.60;55.20;;;;;;4877775;29;19935;-57
2021/03/12 14:07:20;;;;;;;;;;;15.60;55.10;;;;;;4863924;29;19955;-56
2021/03/12 14:09:45;;;;;;;;;;;15.70;55.50;;;;;;4881667;29;20014;-57
2021/03/12 14:12:11;;;;;;;;;;;15.60;55.40;;;;;;4881339;29;19908;-57
2021/03/12 14:14:36;;;;;;;;;;;15.60;55.20;;;;;;4881241;29;19907;-58
2021/03/12 14:17:02;;;;;;;;;;;15.70;55.10;;;;;;4881414;29;20100;-57